Time;durP1;ratioP1;P1;durP2;ratioP2;P2;SDS_P1;SDS_P2;PMS_P1;PMS_P2;Temp;Humidity;BMP_temperature;BMP_pressure;BME280_temperature;BME280_humidity;BME280_pressure;Samples;Min_cycle;Max_cycle;Signal;HPM_P1;HPM_P2
2022/01/17 00:01:27;;;;;;;31.60;14.60;;;2.40;99.90;;;;;;4456978;32;20446;-66
2022/01/17 00:03:55;;;;;;;32.20;15.03;;;2.40;99.90;;;;;;4455001;32;20207;-65
2022/01/17 00:06:22;;;;;;;35.07;15.30;;;2.40;99.90;;;;;;4454205;32;20512;-66
2022/01/17 00:08:50;;;;;;;36.23;15.60;;;2.40;99.90;;;;;;4448649;32;20216;-65
2022/01/17 00:11:17;;;;;;;34.17;14.87;;;2.40;99.90;;;;;;4440403;32;20201;-65
2022/01/17 00:13:46;;;;;;;37.03;15.53;;;2.40;99.90;;;;;;4439211;32;20185;-65
2022/01/17 00:16:15;;;;;;;36.80;15.77;;;2.30;99.90;;;;;;4439861;32;20178;-65
2022/01/17 00:21:10;;;;;;;37.67;16.07;;;2.40;99.90;;;;;;4439228;32;20206;-65
2022/01/17 00:23:37;;;;;;;34.03;15.77;;;2.40;99.90;;;;;;4439196;32;20182;-65
2022/01/17 00:26:04;;;;;;;35.13;16.03;;;2.50;99.90;;;;;;4439745;32;20227;-65
2022/01/17 00:28:32;;;;;;;36.20;17.07;;;2.50;99.90;;;;;;4438846;32;20557;-65
2022/01/17 00:31:01;;;;;;;33.13;15.33;;;2.50;99.90;;;;;;4439361;32;20167;-66
2022/01/17 00:33:28;;;;;;;34.00;16.50;;;2.40;99.90;;;;;;4438927;32;20526;-65
2022/01/17 00:35:55;;;;;;;33.17;16.00;;;2.50;99.90;;;;;;4440793;32;20189;-65
2022/01/17 00:38:22;;;;;;;37.00;16.23;;;2.50;99.90;;;;;;4439056;32;20169;-65
2022/01/17 00:40:49;;;;;;;39.40;16.97;;;2.50;99.90;;;;;;4439219;32;20190;-65
2022/01/17 00:43:16;;;;;;;36.20;16.73;;;2.50;99.90;;;;;;4426374;32;20174;-65
2022/01/17 00:45:44;;;;;;;36.57;16.53;;;2.60;99.90;;;;;;4439962;32;20139;-66
2022/01/17 00:48:12;;;;;;;32.83;15.60;;;2.60;99.90;;;;;;4438914;32;20185;-66
2022/01/17 00:50:40;;;;;;;36.97;16.50;;;2.60;99.90;;;;;;4438888;32;20167;-65
2022/01/17 00:53:08;;;;;;;34.63;15.73;;;2.70;99.90;;;;;;4438309;32;20418;-65
2022/01/17 00:55:37;;;;;;;36.40;15.67;;;2.70;99.90;;;;;;4440042;32;20161;-66
2022/01/17 00:58:04;;;;;;;37.57;15.87;;;2.70;99.90;;;;;;4447075;32;20403;-66
2022/01/17 01:00:32;;;;;;;35.57;15.90;;;2.70;99.90;;;;;;4446770;32;20206;-65
2022/01/17 01:02:59;;;;;;;35.53;16.07;;;2.70;99.90;;;;;;4441485;32;20134;-65
2022/01/17 01:05:26;;;;;;;36.10;15.83;;;2.80;99.90;;;;;;4439804;32;20227;-65
2022/01/17 01:07:54;;;;;;;34.27;15.13;;;2.80;99.90;;;;;;4438469;32;20174;-65
2022/01/17 01:10:21;;;;;;;35.00;15.47;;;2.80;99.90;;;;;;4440220;32;20174;-65
2022/01/17 01:12:52;;;;;;;35.60;15.53;;;2.80;99.90;;;;;;4438790;32;20193;-65
2022/01/17 01:18:17;;;;;;;36.13;15.83;;;2.80;99.90;;;;;;4438362;32;20185;-65
2022/01/17 01:28:46;;;;;;;38.20;16.53;;;2.80;99.90;;;;;;4438847;32;20200;-65
2022/01/17 01:31:18;;;;;;;38.63;17.10;;;2.80;99.90;;;;;;4439331;32;20143;-65
2022/01/17 01:33:53;;;;;;;43.10;17.37;;;2.70;99.90;;;;;;4437716;32;20186;-65
2022/01/17 01:36:27;;;;;;;40.63;16.03;;;2.70;99.90;;;;;;4438781;32;20334;-66
2022/01/17 01:38:55;;;;;;;41.63;17.80;;;2.70;99.90;;;;;;4438344;32;20170;-65
2022/01/17 01:41:22;;;;;;;38.07;17.00;;;2.70;99.90;;;;;;4439574;32;20204;-65
2022/01/17 01:43:49;;;;;;;39.83;18.33;;;2.70;99.90;;;;;;4437519;32;20174;-65
2022/01/17 01:46:19;;;;;;;40.67;17.80;;;2.70;99.90;;;;;;4439154;32;20197;-65
2022/01/17 01:48:47;;;;;;;45.17;19.80;;;2.70;99.90;;;;;;4438953;32;20472;-65
2022/01/17 01:51:15;;;;;;;39.70;18.10;;;2.70;99.90;;;;;;4438284;32;20213;-65
2022/01/17 01:53:42;;;;;;;47.77;18.63;;;2.70;99.90;;;;;;4437959;32;20180;-65
2022/01/17 01:56:09;;;;;;;45.23;18.57;;;2.70;99.90;;;;;;4439096;32;20228;-65
2022/01/17 01:58:39;;;;;;;40.97;17.60;;;2.70;99.90;;;;;;4439508;32;20170;-65
2022/01/17 02:01:06;;;;;;;39.40;17.43;;;2.70;99.90;;;;;;4438340;32;20312;-65
2022/01/17 02:03:34;;;;;;;40.33;17.60;;;2.70;99.90;;;;;;4439189;32;20261;-65
2022/01/17 02:06:01;;;;;;;39.77;17.57;;;2.70;99.90;;;;;;4438174;32;20544;-65
2022/01/17 02:08:30;;;;;;;43.17;19.33;;;2.70;99.90;;;;;;4438971;32;20173;-65
2022/01/17 02:10:58;;;;;;;43.20;18.00;;;2.70;99.90;;;;;;4437833;32;20262;-65
2022/01/17 02:13:26;;;;;;;44.30;19.63;;;2.80;99.90;;;;;;4437587;32;20197;-65
2022/01/17 02:16:01;;;;;;;42.13;19.10;;;2.80;99.90;;;;;;4438733;32;20143;-65
2022/01/17 02:18:31;;;;;;;41.93;16.97;;;2.80;99.90;;;;;;4437690;32;20196;-65
2022/01/17 02:23:53;;;;;;;44.03;18.67;;;2.80;99.90;;;;;;4437786;32;20193;-65
2022/01/17 02:26:22;;;;;;;43.03;18.40;;;2.90;99.90;;;;;;4437937;32;20244;-65
2022/01/17 02:28:51;;;;;;;44.23;19.03;;;3.00;99.90;;;;;;4437721;32;20234;-65
2022/01/17 02:31:19;;;;;;;39.33;18.47;;;3.00;99.90;;;;;;4438765;32;20158;-65
2022/01/17 02:33:49;;;;;;;38.73;17.13;;;2.90;99.90;;;;;;4439724;32;20143;-65
2022/01/17 02:36:16;;;;;;;38.90;18.03;;;2.90;99.90;;;;;;4437929;32;20269;-65
2022/01/17 02:38:44;;;;;;;41.30;18.50;;;2.90;99.90;;;;;;4438254;32;20209;-65
2022/01/17 02:41:11;;;;;;;43.03;18.97;;;2.90;99.90;;;;;;4437132;32;20189;-65
2022/01/17 02:43:40;;;;;;;40.53;19.03;;;3.00;99.90;;;;;;4424292;32;20192;-65
2022/01/17 02:48:38;;;;;;;45.83;19.30;;;3.00;99.90;;;;;;4436956;32;20259;-65
2022/01/17 02:51:06;;;;;;;44.53;19.33;;;3.10;99.90;;;;;;4438394;32;20174;-65
2022/01/17 02:53:34;;;;;;;42.93;18.50;;;3.10;99.90;;;;;;4436727;32;20171;-65
2022/01/17 02:56:04;;;;;;;42.40;19.17;;;3.10;99.90;;;;;;4437097;32;20237;-65
2022/01/17 02:58:33;;;;;;;42.13;18.50;;;3.10;99.90;;;;;;4437705;32;20174;-65
2022/01/17 03:01:09;;;;;;;41.73;19.47;;;3.10;99.90;;;;;;4437032;32;20170;-65
2022/01/17 03:03:36;;;;;;;40.47;18.07;;;3.20;99.90;;;;;;4439152;32;20173;-65
2022/01/17 03:06:04;;;;;;;40.30;20.03;;;3.20;99.90;;;;;;4436691;32;20178;-65
2022/01/17 03:08:32;;;;;;;38.00;17.33;;;3.20;99.90;;;;;;4437548;32;20692;-65
2022/01/17 03:11:01;;;;;;;42.00;17.23;;;3.30;99.90;;;;;;4436956;32;20192;-65
2022/01/17 03:13:33;;;;;;;37.13;17.00;;;3.30;99.90;;;;;;4436702;32;20462;-65
2022/01/17 03:16:08;;;;;;;36.43;16.57;;;3.30;99.90;;;;;;4438606;32;20206;-65
2022/01/17 03:18:39;;;;;;;33.97;15.87;;;3.30;99.90;;;;;;4437737;32;20210;-65
2022/01/17 03:21:08;;;;;;;30.73;15.80;;;3.40;99.90;;;;;;4439012;32;20411;-66
2022/01/17 03:23:37;;;;;;;37.63;15.80;;;3.40;99.90;;;;;;4440412;32;20525;-65
2022/01/17 03:26:04;;;;;;;31.40;15.77;;;3.50;99.90;;;;;;4441284;32;20197;-65
2022/01/17 03:28:32;;;;;;;31.17;15.90;;;3.50;99.90;;;;;;4440476;32;20220;-65
2022/01/17 03:30:59;;;;;;;33.07;15.43;;;3.50;99.90;;;;;;4439701;32;20193;-65
2022/01/17 03:33:27;;;;;;;35.83;16.30;;;3.50;99.90;;;;;;4439848;32;20214;-65
2022/01/17 03:35:55;;;;;;;30.13;15.60;;;3.50;99.90;;;;;;4440451;32;20336;-65
2022/01/17 03:38:25;;;;;;;28.80;14.67;;;3.60;99.90;;;;;;4439710;32;20205;-65
2022/01/17 03:40:52;;;;;;;30.23;15.00;;;3.60;99.90;;;;;;4441041;32;20289;-65
2022/01/17 03:43:21;;;;;;;26.43;14.73;;;3.70;99.90;;;;;;4441023;32;20170;-65
2022/01/17 03:45:49;;;;;;;30.83;14.90;;;3.70;99.90;;;;;;4442375;32;20364;-65
2022/01/17 03:48:18;;;;;;;29.37;14.60;;;3.70;99.90;;;;;;4439545;32;20178;-65
2022/01/17 03:50:45;;;;;;;28.33;14.67;;;3.80;99.90;;;;;;4441055;32;20177;-65
2022/01/17 03:53:12;;;;;;;28.60;13.50;;;3.80;99.90;;;;;;4440255;32;20255;-65
2022/01/17 03:55:39;;;;;;;24.67;13.40;;;3.80;99.90;;;;;;4439409;32;20170;-65
2022/01/17 03:58:07;;;;;;;27.50;13.87;;;3.80;99.90;;;;;;4440991;32;20233;-65
2022/01/17 04:00:43;;;;;;;28.93;13.97;;;3.80;99.90;;;;;;4439625;32;20171;-65
2022/01/17 04:03:14;;;;;;;31.23;13.77;;;3.90;99.90;;;;;;4441004;32;20271;-65
2022/01/17 04:05:41;;;;;;;28.50;13.30;;;3.90;99.90;;;;;;4440434;32;20201;-65
2022/01/17 04:08:09;;;;;;;25.77;12.97;;;3.90;99.90;;;;;;4441472;32;20142;-65
2022/01/17 04:10:36;;;;;;;28.13;12.83;;;3.90;99.90;;;;;;4439478;32;20186;-65
2022/01/17 04:13:04;;;;;;;27.63;13.27;;;3.90;99.90;;;;;;4440340;32;20222;-65
2022/01/17 04:15:33;;;;;;;27.17;12.70;;;3.90;99.90;;;;;;4438824;32;20187;-65
2022/01/17 04:18:01;;;;;;;29.07;13.63;;;3.90;99.90;;;;;;4438892;32;20208;-65
2022/01/17 04:20:29;;;;;;;26.67;13.33;;;3.90;99.90;;;;;;4438915;32;20187;-65
2022/01/17 04:23:00;;;;;;;26.97;12.03;;;3.80;99.90;;;;;;4441081;32;20178;-65
2022/01/17 04:25:29;;;;;;;26.63;13.10;;;3.80;99.90;;;;;;4439177;32;20203;-65
2022/01/17 04:27:58;;;;;;;26.47;13.37;;;3.80;99.90;;;;;;4439986;32;20170;-65
2022/01/17 04:30:26;;;;;;;27.57;13.00;;;3.80;99.90;;;;;;4438920;32;20187;-65
2022/01/17 04:32:56;;;;;;;27.70;12.97;;;3.80;99.90;;;;;;4440004;32;20170;-65
2022/01/17 04:35:25;;;;;;;27.57;13.77;;;3.80;99.90;;;;;;4438657;32;20170;-65
2022/01/17 04:38:06;;;;;;;27.50;13.30;;;3.80;99.90;;;;;;4439669;32;20224;-65
2022/01/17 04:40:37;;;;;;;25.53;13.57;;;3.80;99.90;;;;;;4438885;32;20174;-65
2022/01/17 04:43:17;;;;;;;25.27;12.27;;;3.80;99.90;;;;;;4440463;32;20177;-66
2022/01/17 04:45:46;;;;;;;26.67;12.53;;;3.80;99.90;;;;;;4440552;32;20139;-65
2022/01/17 04:48:13;;;;;;;21.70;11.40;;;3.80;99.90;;;;;;4439873;32;20174;-65
2022/01/17 04:50:43;;;;;;;25.63;12.23;;;3.80;99.90;;;;;;4440518;32;20174;-65
2022/01/17 04:53:15;;;;;;;22.87;11.73;;;3.80;99.90;;;;;;4439132;32;20216;-65
2022/01/17 04:55:43;;;;;;;23.70;11.87;;;3.80;99.90;;;;;;4441491;32;20217;-66
2022/01/17 04:58:10;;;;;;;24.10;11.33;;;3.80;99.90;;;;;;4438686;32;20200;-65
2022/01/17 05:00:39;;;;;;;24.13;11.47;;;3.80;99.90;;;;;;4438554;32;20229;-65
2022/01/17 05:03:06;;;;;;;20.43;10.37;;;3.80;99.90;;;;;;4438947;32;20194;-65
2022/01/17 05:05:33;;;;;;;18.63;10.30;;;3.90;99.90;;;;;;4438134;32;20202;-65
2022/01/17 05:08:00;;;;;;;20.63;9.87;;;3.90;99.90;;;;;;4438802;32;20166;-65
2022/01/17 05:10:27;;;;;;;19.10;9.40;;;4.00;99.90;;;;;;4439723;32;20436;-65
2022/01/17 05:12:54;;;;;;;19.93;9.60;;;4.00;99.90;;;;;;4437801;32;20175;-65
2022/01/17 05:15:36;;;;;;;17.80;9.17;;;4.00;99.90;;;;;;4438586;32;20193;-65
2022/01/17 05:18:24;;;;;;;16.67;8.80;;;4.10;99.90;;;;;;4439646;32;20145;-65
2022/01/17 05:20:51;;;;;;;16.33;8.83;;;4.20;99.90;;;;;;4439372;32;20175;-66
2022/01/17 05:23:18;;;;;;;18.73;9.07;;;4.20;99.90;;;;;;4438434;32;20185;-65
2022/01/17 05:25:45;;;;;;;17.03;8.77;;;4.30;99.90;;;;;;4438219;32;20166;-65
2022/01/17 05:28:12;;;;;;;17.67;8.97;;;4.30;99.90;;;;;;4438812;32;20202;-65
2022/01/17 05:30:39;;;;;;;16.90;8.60;;;4.30;99.90;;;;;;4439106;32;20170;-65
2022/01/17 05:33:06;;;;;;;14.87;8.23;;;4.30;99.90;;;;;;4438943;32;20170;-65
2022/01/17 05:35:33;;;;;;;15.00;8.33;;;4.30;99.90;;;;;;4438813;32;20401;-65
2022/01/17 05:38:00;;;;;;;16.13;8.43;;;4.40;99.90;;;;;;4438618;32;20241;-65
2022/01/17 05:40:28;;;;;;;14.53;7.83;;;4.40;99.90;;;;;;4437723;32;20462;-65
2022/01/17 05:42:55;;;;;;;17.70;8.30;;;4.40;99.90;;;;;;4437809;32;20175;-65
2022/01/17 05:45:22;;;;;;;14.53;8.10;;;4.40;99.90;;;;;;4438544;32;20457;-65
2022/01/17 05:47:49;;;;;;;13.33;7.97;;;4.40;99.90;;;;;;4439944;32;20146;-65
2022/01/17 05:50:16;;;;;;;14.47;7.63;;;4.40;99.90;;;;;;4437796;32;20197;-66
2022/01/17 05:52:44;;;;;;;15.47;8.10;;;4.30;99.90;;;;;;4437737;32;20381;-65
2022/01/17 05:55:14;;;;;;;13.27;7.47;;;4.30;99.90;;;;;;4437728;32;20389;-65
2022/01/17 05:57:42;;;;;;;15.20;7.20;;;4.30;99.90;;;;;;4439165;32;20150;-66
2022/01/17 06:00:14;;;;;;;12.93;7.20;;;4.40;99.90;;;;;;4439667;32;20481;-66
2022/01/17 06:02:41;;;;;;;12.43;7.30;;;4.40;99.90;;;;;;4438089;32;20194;-65
2022/01/17 06:05:09;;;;;;;12.73;6.83;;;4.40;99.90;;;;;;4436952;32;20195;-66
2022/01/17 06:07:36;;;;;;;12.23;6.67;;;4.40;99.90;;;;;;4438089;32;20191;-65
2022/01/17 06:10:03;;;;;;;13.07;6.57;;;4.40;99.90;;;;;;4437818;32;20200;-66
2022/01/17 06:12:30;;;;;;;12.37;6.40;;;4.40;99.90;;;;;;4436985;32;20541;-66
2022/01/17 06:14:58;;;;;;;12.10;6.20;;;4.50;99.90;;;;;;4437119;32;20180;-66
2022/01/17 06:17:25;;;;;;;11.97;6.23;;;4.50;99.90;;;;;;4438758;32;20162;-66
2022/01/17 06:19:52;;;;;;;11.60;5.90;;;4.50;99.90;;;;;;4437327;32;20225;-66
2022/01/17 06:22:19;;;;;;;12.37;5.87;;;4.50;99.90;;;;;;4436975;32;20509;-65
2022/01/17 06:24:47;;;;;;;11.83;6.13;;;4.50;99.90;;;;;;4437231;32;20175;-66
2022/01/17 06:27:14;;;;;;;13.17;6.00;;;4.50;99.90;;;;;;4437368;32;20167;-65
2022/01/17 06:29:42;;;;;;;12.80;6.20;;;4.50;99.90;;;;;;4440140;32;20180;-65
2022/01/17 06:32:09;;;;;;;9.30;5.60;;;4.50;99.90;;;;;;4438360;32;20182;-66
2022/01/17 06:34:53;;;;;;;9.67;6.00;;;4.40;99.90;;;;;;4436894;32;20221;-65
2022/01/17 06:37:24;;;;;;;10.50;5.73;;;4.40;99.90;;;;;;4436667;32;20163;-65
2022/01/17 06:39:52;;;;;;;9.87;5.27;;;4.40;99.90;;;;;;4437233;32;20517;-65
2022/01/17 06:42:20;;;;;;;11.13;5.57;;;4.40;99.90;;;;;;4437719;32;20217;-65
2022/01/17 06:44:49;;;;;;;10.20;5.77;;;4.40;99.90;;;;;;4437107;32;20438;-65
2022/01/17 06:47:17;;;;;;;11.57;5.87;;;4.40;99.90;;;;;;4436700;32;20189;-65
2022/01/17 06:49:44;;;;;;;10.73;5.93;;;4.30;99.90;;;;;;4438097;32;20135;-65
2022/01/17 06:52:11;;;;;;;10.67;5.57;;;4.30;99.90;;;;;;4437641;32;20215;-65
2022/01/17 06:54:38;;;;;;;12.80;5.20;;;4.30;99.90;;;;;;4438656;32;20201;-65
2022/01/17 06:57:05;;;;;;;11.00;5.20;;;4.30;99.90;;;;;;4437415;32;20170;-65
2022/01/17 06:59:32;;;;;;;8.23;5.20;;;4.30;99.90;;;;;;4440290;32;20210;-65
2022/01/17 07:01:59;;;;;;;8.37;5.17;;;4.30;99.90;;;;;;4439956;32;20555;-66
2022/01/17 07:04:29;;;;;;;9.33;4.80;;;4.30;99.90;;;;;;4440060;32;20193;-65
2022/01/17 07:06:56;;;;;;;12.10;5.40;;;4.40;99.90;;;;;;4439883;32;20336;-65
2022/01/17 07:09:23;;;;;;;12.43;5.10;;;4.40;99.90;;;;;;4439923;32;20186;-65
2022/01/17 07:11:50;;;;;;;9.70;5.30;;;4.40;99.90;;;;;;4441657;32;20212;-65
2022/01/17 07:14:17;;;;;;;10.03;5.50;;;4.40;99.90;;;;;;4439303;32;20482;-66
2022/01/17 07:16:45;;;;;;;8.73;5.40;;;4.40;99.90;;;;;;4439523;32;20493;-65
2022/01/17 07:19:13;;;;;;;11.20;5.20;;;4.40;99.90;;;;;;4440072;32;20214;-65
2022/01/17 07:21:40;;;;;;;9.47;4.70;;;4.40;99.90;;;;;;4426959;32;20203;-65
2022/01/17 07:24:27;;;;;;;8.03;4.50;;;4.40;99.90;;;;;;4439939;32;20215;-65
2022/01/17 07:26:54;;;;;;;9.77;4.80;;;4.40;99.90;;;;;;4441765;32;20138;-65
2022/01/17 07:29:21;;;;;;;9.23;4.73;;;4.40;99.90;;;;;;4439228;32;20594;-66
2022/01/17 07:31:49;;;;;;;7.67;4.23;;;4.30;99.90;;;;;;4439541;32;20566;-66
2022/01/17 07:34:16;;;;;;;8.47;4.23;;;4.30;99.90;;;;;;4442090;32;20155;-66
2022/01/17 07:36:43;;;;;;;8.47;4.27;;;4.20;99.90;;;;;;4439488;32;20408;-66
2022/01/17 07:39:19;;;;;;;7.70;4.30;;;4.20;99.90;;;;;;4439021;32;20301;-65
2022/01/17 07:41:46;;;;;;;10.10;4.23;;;4.20;99.90;;;;;;4439470;32;20193;-66
2022/01/17 07:44:19;;;;;;;9.57;4.00;;;4.10;99.90;;;;;;4426929;32;20197;-65
2022/01/17 07:46:49;;;;;;;7.10;3.60;;;4.10;99.90;;;;;;4439697;32;20400;-65
2022/01/17 07:49:19;;;;;;;7.27;4.10;;;4.10;99.90;;;;;;4426954;32;20178;-65
2022/01/17 07:51:59;;;;;;;7.47;3.80;;;4.20;99.90;;;;;;4426793;32;20453;-65
2022/01/17 07:54:33;;;;;;;9.13;4.20;;;4.20;99.90;;;;;;4439227;32;20171;-65
2022/01/17 07:57:04;;;;;;;9.00;4.03;;;4.10;99.90;;;;;;4439171;32;20210;-65
2022/01/17 07:59:32;;;;;;;6.43;3.63;;;4.10;99.90;;;;;;4439025;32;20237;-65
2022/01/17 08:02:00;;;;;;;7.00;4.13;;;4.10;99.90;;;;;;4440965;32;20135;-65
2022/01/17 08:04:28;;;;;;;8.70;3.80;;;4.00;99.90;;;;;;4439610;32;20175;-65
2022/01/17 08:06:56;;;;;;;5.23;3.37;;;4.10;99.90;;;;;;4440420;32;20159;-65
2022/01/17 08:09:29;;;;;;;5.87;3.20;;;4.10;99.90;;;;;;4438642;32;20498;-66
2022/01/17 08:12:04;;;;;;;7.40;3.30;;;4.10;99.90;;;;;;4440651;32;20368;-65
2022/01/17 08:14:31;;;;;;;7.00;3.57;;;4.20;99.90;;;;;;4439797;32;20230;-65
2022/01/17 08:16:58;;;;;;;6.77;3.50;;;4.10;99.90;;;;;;4438996;32;20588;-66
2022/01/17 08:19:34;;;;;;;5.17;3.20;;;4.10;99.90;;;;;;4440254;32;20151;-67
2022/01/17 08:22:06;;;;;;;7.67;3.67;;;4.20;99.90;;;;;;4425944;32;20226;-65
2022/01/17 08:24:35;;;;;;;5.77;3.40;;;4.20;99.90;;;;;;4438482;32;20274;-65
2022/01/17 08:27:03;;;;;;;5.23;3.20;;;4.20;99.90;;;;;;4438862;32;20436;-65
2022/01/17 08:29:30;;;;;;;5.57;3.00;;;4.10;99.90;;;;;;4438727;32;20210;-65
2022/01/17 08:31:59;;;;;;;5.73;2.90;;;4.20;99.90;;;;;;4438674;32;20310;-65
2022/01/17 08:34:27;;;;;;;6.73;2.97;;;4.20;99.90;;;;;;4438797;32;20232;-65
2022/01/17 08:36:54;;;;;;;9.70;3.10;;;4.30;99.90;;;;;;4437966;32;20186;-65
2022/01/17 08:39:21;;;;;;;5.73;3.00;;;4.30;99.90;;;;;;4438546;32;20458;-65
2022/01/17 08:41:49;;;;;;;9.20;3.30;;;4.30;99.90;;;;;;4439786;32;20159;-65
2022/01/17 08:44:19;;;;;;;8.93;2.80;;;4.40;99.90;;;;;;4440613;32;20141;-65
2022/01/17 08:46:47;;;;;;;3.40;2.53;;;4.50;99.90;;;;;;4439315;32;20576;-66
2022/01/17 08:49:16;;;;;;;6.93;2.83;;;4.50;99.90;;;;;;4440100;32;20462;-65
2022/01/17 08:51:46;;;;;;;4.23;2.30;;;4.50;99.90;;;;;;4438346;32;20171;-65
2022/01/17 08:54:13;;;;;;;6.07;3.10;;;4.50;99.90;;;;;;4439316;32;20214;-65
2022/01/17 08:56:41;;;;;;;5.80;2.70;;;4.40;99.90;;;;;;4439662;32;20224;-65
2022/01/17 08:59:08;;;;;;;5.30;2.30;;;4.40;99.90;;;;;;4438383;32;20186;-65
2022/01/17 09:01:35;;;;;;;5.40;2.50;;;4.40;99.90;;;;;;4439109;32;20167;-65
2022/01/17 09:04:03;;;;;;;7.27;2.53;;;4.30;99.90;;;;;;4439232;32;20160;-65
2022/01/17 09:06:30;;;;;;;4.47;2.53;;;4.30;99.90;;;;;;4438687;32;20203;-65
2022/01/17 09:08:57;;;;;;;3.30;1.53;;;4.30;99.90;;;;;;4437992;32;20179;-65
2022/01/17 09:11:25;;;;;;;3.07;1.10;;;3.60;99.90;;;;;;4438511;32;20215;-65
2022/01/17 09:13:52;;;;;;;1.03;0.90;;;2.80;99.90;;;;;;4438751;32;20175;-64
2022/01/17 09:16:20;;;;;;;0.90;0.60;;;2.10;99.90;;;;;;4438124;32;20178;-64
2022/01/17 09:18:47;;;;;;;0.87;0.70;;;1.50;99.90;;;;;;4439829;32;20151;-64
2022/01/17 09:21:14;;;;;;;0.67;0.60;;;1.10;99.90;;;;;;4438068;32;20167;-64
2022/01/17 09:23:42;;;;;;;1.00;0.70;;;0.90;99.90;;;;;;4445196;32;20214;-64
2022/01/17 09:26:09;;;;;;;0.97;0.67;;;0.70;99.90;;;;;;4440622;32;20205;-64
2022/01/17 09:28:36;;;;;;;1.90;0.77;;;0.60;99.90;;;;;;4437862;32;20174;-64
2022/01/17 09:31:03;;;;;;;1.87;0.80;;;0.60;99.90;;;;;;4439167;32;20170;-64
2022/01/17 09:33:30;;;;;;;1.17;0.90;;;0.50;99.90;;;;;;4438169;32;20193;-64
2022/01/17 09:35:57;;;;;;;1.43;0.80;;;0.50;99.90;;;;;;4437449;32;20575;-64
2022/01/17 09:38:25;;;;;;;2.83;1.17;;;0.50;99.90;;;;;;4425057;32;20458;-64
2022/01/17 09:40:52;;;;;;;1.57;1.00;;;0.50;99.90;;;;;;4440114;32;20395;-64
2022/01/17 09:43:39;;;;;;;2.37;1.10;;;0.50;99.90;;;;;;4437176;32;20574;-65
2022/01/17 09:46:07;;;;;;;3.57;1.10;;;0.50;99.90;;;;;;4437864;32;20502;-64
2022/01/17 09:48:36;;;;;;;4.50;1.17;;;0.50;99.90;;;;;;4437928;32;20600;-65
2022/01/17 09:51:33;;;;;;;2.27;1.13;;;0.50;99.90;;;;;;4437465;32;20639;-65
2022/01/17 09:54:00;;;;;;;2.20;1.00;;;0.50;99.90;;;;;;4439159;32;20178;-64
2022/01/17 09:56:29;;;;;;;1.90;1.07;;;0.50;99.90;;;;;;4437968;32;20166;-64
2022/01/17 09:58:58;;;;;;;3.53;1.23;;;0.40;99.90;;;;;;4437465;32;20182;-64
2022/01/17 10:01:27;;;;;;;2.37;1.20;;;0.40;99.90;;;;;;4437092;32;20178;-64
2022/01/17 10:03:57;;;;;;;2.37;1.23;;;0.50;99.90;;;;;;4437300;32;20594;-64
2022/01/17 10:06:24;;;;;;;1.30;1.10;;;0.50;99.90;;;;;;4437515;32;20182;-64
2022/01/17 10:09:17;;;;;;;1.10;1.00;;;0.50;99.90;;;;;;4437317;32;20179;-64
2022/01/17 10:12:14;;;;;;;3.23;1.00;;;0.50;99.90;;;;;;4437358;32;20185;-65
2022/01/17 10:14:56;;;;;;;2.10;1.27;;;0.50;99.90;;;;;;4437538;32;20186;-65
2022/01/17 10:17:40;;;;;;;3.00;1.43;;;0.50;99.90;;;;;;4436803;32;20245;-64
2022/01/17 10:20:09;;;;;;;4.13;1.60;;;0.60;99.90;;;;;;4437698;32;20166;-65
2022/01/17 10:22:47;;;;;;;5.17;1.70;;;0.60;99.90;;;;;;4436724;32;20240;-65
2022/01/17 10:25:40;;;;;;;2.70;1.53;;;0.60;99.90;;;;;;4438497;32;20180;-65
2022/01/17 10:28:40;;;;;;;4.47;1.80;;;0.60;99.90;;;;;;4437905;32;20186;-65
2022/01/17 10:36:49;;;;;;;3.17;1.70;;;0.60;99.90;;;;;;4443250;32;20196;-65
2022/01/17 10:39:17;;;;;;;2.93;1.60;;;0.60;99.90;;;;;;4452116;32;20252;-65
2022/01/17 10:41:44;;;;;;;2.73;1.47;;;0.60;99.90;;;;;;4452103;32;20178;-65
2022/01/17 10:44:11;;;;;;;4.00;1.50;;;0.60;99.90;;;;;;4451869;32;20244;-64
2022/01/17 10:46:38;;;;;;;3.60;1.50;;;0.60;99.90;;;;;;4452598;32;20170;-65
2022/01/17 10:49:46;;;;;;;2.50;1.40;;;0.70;99.90;;;;;;4452295;32;20237;-64
2022/01/17 10:52:25;;;;;;;2.70;1.23;;;0.70;99.90;;;;;;4454110;32;20169;-64
2022/01/17 10:54:57;;;;;;;4.07;1.60;;;0.70;99.90;;;;;;4452552;32;20511;-65
2022/01/17 10:57:25;;;;;;;1.63;1.33;;;0.80;99.90;;;;;;4453018;32;20189;-65
2022/01/17 10:59:52;;;;;;;1.73;1.27;;;0.90;99.90;;;;;;4451569;32;20177;-65
2022/01/17 11:02:25;;;;;;;2.67;1.57;;;0.80;99.90;;;;;;4453138;32;20444;-65
2022/01/17 11:04:52;;;;;;;4.23;1.70;;;1.00;99.90;;;;;;4452017;32;20185;-65
2022/01/17 11:07:19;;;;;;;2.97;1.50;;;1.00;99.90;;;;;;4451921;32;20585;-65
2022/01/17 11:09:49;;;;;;;4.83;1.70;;;1.10;99.90;;;;;;4453062;32;20240;-65
2022/01/17 11:12:18;;;;;;;3.30;1.57;;;1.20;99.90;;;;;;4452201;32;20170;-65
2022/01/17 11:14:46;;;;;;;3.07;1.60;;;1.10;99.90;;;;;;4452074;32;20174;-65
2022/01/17 11:17:38;;;;;;;4.67;1.60;;;1.00;99.90;;;;;;4454177;32;20165;-65
2022/01/17 11:20:08;;;;;;;3.63;1.70;;;1.00;99.90;;;;;;4452466;32;20200;-65
2022/01/17 11:22:39;;;;;;;5.10;1.53;;;0.90;99.90;;;;;;4453807;32;20200;-66
2022/01/17 11:25:08;;;;;;;3.83;1.70;;;0.80;99.90;;;;;;4454640;32;20166;-65
2022/01/17 11:27:35;;;;;;;3.77;1.63;;;0.80;99.90;;;;;;4451865;32;20515;-65
2022/01/17 11:30:04;;;;;;;4.70;1.80;;;0.90;99.90;;;;;;4451748;32;20166;-65
2022/01/17 11:32:31;;;;;;;3.50;1.73;;;0.90;99.90;;;;;;4451665;32;20205;-65
2022/01/17 11:35:01;;;;;;;2.10;1.50;;;0.90;99.90;;;;;;4451928;32;20265;-65
2022/01/17 11:37:37;;;;;;;3.93;1.70;;;1.00;99.90;;;;;;4452055;32;20447;-65
2022/01/17 11:40:07;;;;;;;2.73;1.67;;;1.00;99.90;;;;;;4453210;32;20188;-65
2022/01/17 11:42:39;;;;;;;3.93;1.60;;;1.10;99.90;;;;;;4453394;32;20150;-65
2022/01/17 11:45:21;;;;;;;5.90;1.70;;;1.20;99.90;;;;;;4456120;32;20192;-65
2022/01/17 11:47:59;;;;;;;4.17;1.77;;;1.30;99.90;;;;;;4455872;32;20193;-65
2022/01/17 11:50:41;;;;;;;5.83;2.20;;;1.70;99.90;;;;;;4454998;32;20173;-65
2022/01/17 11:53:11;;;;;;;3.80;1.60;;;2.10;99.90;;;;;;4456199;32;20173;-65
2022/01/17 11:55:38;;;;;;;4.17;1.90;;;2.60;99.90;;;;;;4455303;32;20226;-65
2022/01/17 11:58:41;;;;;;;3.63;1.70;;;3.20;99.90;;;;;;4456915;32;20178;-66
2022/01/17 12:01:10;;;;;;;5.77;1.73;;;3.80;99.90;;;;;;4456458;32;20134;-65
2022/01/17 12:03:53;;;;;;;4.77;1.60;;;4.00;99.90;;;;;;4454651;32;20171;-66
2022/01/17 12:06:35;;;;;;;5.07;1.80;;;3.80;99.90;;;;;;4452970;32;20175;-65
2022/01/17 12:09:25;;;;;;;6.63;1.90;;;3.20;99.90;;;;;;4438976;32;20189;-65
2022/01/17 12:12:07;;;;;;;4.87;2.00;;;2.70;99.90;;;;;;4440808;32;20234;-65
2022/01/17 12:14:36;;;;;;;2.83;1.63;;;2.50;99.90;;;;;;4439067;32;20213;-65
2022/01/17 12:17:25;;;;;;;5.97;1.73;;;2.30;99.90;;;;;;4438823;32;20207;-65
2022/01/17 12:20:09;;;;;;;4.43;1.60;;;2.30;99.90;;;;;;4438957;32;20487;-65
2022/01/17 12:22:39;;;;;;;4.27;1.57;;;2.30;99.90;;;;;;4439928;32;20182;-66
2022/01/17 12:25:25;;;;;;;4.20;1.53;;;2.30;99.90;;;;;;4437407;32;20520;-65
2022/01/17 12:28:17;;;;;;;5.73;1.63;;;2.20;99.90;;;;;;4438935;32;20190;-66
2022/01/17 12:30:56;;;;;;;3.90;1.70;;;2.20;99.90;;;;;;4439227;32;20560;-65
2022/01/17 12:33:42;;;;;;;3.37;1.63;;;2.30;99.90;;;;;;4438157;32;20228;-65
2022/01/17 12:36:31;;;;;;;5.20;1.60;;;2.20;99.90;;;;;;4438975;32;20189;-65
2022/01/17 12:39:16;;;;;;;2.80;1.47;;;2.20;99.90;;;;;;4438181;32;20532;-65
2022/01/17 12:41:45;;;;;;;6.73;1.70;;;2.20;99.90;;;;;;4438904;32;20258;-65
2022/01/17 12:44:22;;;;;;;5.07;1.60;;;2.20;99.90;;;;;;4439910;32;20178;-66
2022/01/17 12:46:52;;;;;;;5.63;1.60;;;2.30;99.90;;;;;;4438972;32;20162;-65
2022/01/17 12:49:21;;;;;;;4.23;1.50;;;2.30;99.90;;;;;;4439974;32;20166;-66
2022/01/17 12:51:51;;;;;;;3.90;1.60;;;2.30;99.90;;;;;;4440266;32;20234;-65
2022/01/17 12:54:20;;;;;;;4.37;1.60;;;2.30;99.90;;;;;;4438909;32;20190;-66
2022/01/17 12:56:50;;;;;;;4.00;1.60;;;2.30;99.90;;;;;;4439490;32;20194;-67
2022/01/17 12:59:18;;;;;;;3.60;1.80;;;2.40;99.90;;;;;;4440836;32;20196;-66
2022/01/17 13:01:50;;;;;;;5.63;1.60;;;2.50;99.90;;;;;;4440969;32;20480;-66
2022/01/17 13:04:18;;;;;;;5.77;1.70;;;2.60;99.90;;;;;;4437993;32;20533;-65
2022/01/17 13:06:48;;;;;;;5.53;1.70;;;2.60;99.90;;;;;;4437808;32;20209;-65
2022/01/17 13:09:20;;;;;;;4.60;1.70;;;2.70;99.90;;;;;;4438381;32;20264;-66
2022/01/17 13:11:49;;;;;;;3.67;1.47;;;2.60;99.90;;;;;;4437698;32;20179;-66
2022/01/17 13:14:17;;;;;;;4.13;1.50;;;2.60;99.90;;;;;;4439527;32;20207;-66
2022/01/17 13:16:46;;;;;;;4.50;1.60;;;2.60;99.90;;;;;;4437799;32;20206;-67
2022/01/17 13:19:14;;;;;;;6.00;1.43;;;2.50;99.90;;;;;;4438362;32;20174;-67
2022/01/17 13:21:44;;;;;;;4.23;1.70;;;2.50;99.90;;;;;;4440660;32;20515;-66
2022/01/17 13:24:17;;;;;;;4.77;1.50;;;2.50;99.90;;;;;;4439032;32;20174;-67
2022/01/17 13:27:20;;;;;;;3.47;1.43;;;2.50;99.90;;;;;;4439281;32;20220;-67
2022/01/17 13:29:48;;;;;;;3.17;1.33;;;2.50;99.90;;;;;;4363474;32;20246;-66